Cunningham, Kentucky
Current Conditions -  °F | °C
As of 5:53 AM on Wednesday 28 Jan 2015 (Local Time) from KPAH Reporting Station
Haze Haze  
Wind Chill: 27°   Ceiling: Unl
Heat Index: 27°   Visibility: 6mi
Dew Point: 24°   Wind: 3mph
Humidity: 89%   Direction: 110°ESE
Pressure: 30.28"   Gusts: NA
Location:  36.91°N, 88.89°W
Report Text: KPAH 281153Z 11003KT 6SM BR CLR M03/M04 A3028 RMK AO2 SLP257 I1000 I6001 T10281044 11017 21044 51007
Loading
Personal Weather Stations






























Interactive Weather Map New forecast layout! Learn more

10-Day Weather Forecast

Advertisements
Track Severe Weather on mobile